Lynn, MA (01904)

7:45 AM EST on December 21, 2014 (GMT -0500)
Buchanan Circle | Change Station
CLOSE
Current Station
Personal Weather Station
Location: Lynn, MA
Elevation: 108 ft
Nearby Weather Stations

Elev 108 ft 42.49 °N, 70.94 °W | Updated 35 seconds ago

Overcast
Overcast
29.6 °F
Feels Like 30 °F
N
0.0
Wind Variable Wind from NNW
Gusts 4.0 mph

Today
High -- | Low -- °F
--% Chance of Precip.
Yesterday
High -- | Low -- °F
Precip. -- in
7:10 AM 4:13 PM
Waning Crescent, 0% visible
Pressure 30.31 in
Visibility 10.0 miles
Clouds Overcast 1000 ft
Windchill 30 °F
Dew Point 26 °F
Humidity 88%
Rainfall 0.00 in
Snow Depth Not available.
UV 0.0 out of 12
Pollen .10 out of 12
Air Quality Not available.
Flu Activity Not available.
METAR KBVY 211153Z 01006KT 10SM OVC010 M02/M05 A3032 RMK AO2 SLP263 T10221050 10011 21022 53009

More Conditions Fewer Conditions

Pressure 30.31 in
Visibility 10.0 miles
Clouds Overcast 1000 ft
Windchill 30 °F
Dew Point 26 °F
Humidity 88%
Rainfall 0.00 in
Snow Depth Not available.
UV 0.0 out of 12
Pollen .10 out of 12
Air Quality Not available.
Flu Activity Not available.
METAR KBVY 211153Z 01006KT 10SM OVC010 M02/M05 A3032 RMK AO2 SLP263 T10221050 10011 21022 53009

More Conditions Fewer Conditions

10-Day Weather Forecast

Almanac

Astronomy

Dec. 21, 2014 Rise Set
Actual Time
Civil Twilight
Nautical Twilight
Astronomical Twilight
Moon
Length of Visible Light
Length of Day
Tomorrow will be .
, % of the Moon is Illuminated

Today's Extremes

State Highs State Lows

Community

WunderPhotos

Upload Photos

1,779,372 photos uploaded!

WunderBlogs® & News

Nearby

Air Quality

  Air Quality AQ Index Pollutant
Not available.

Snow Depth

Station Depth Elevation

Earthquake Activity

City Distance Mag. Time & Date
Minimum magnitude displayed is 2.5.

Coastal Water Temperatures

Place Temperature

Nearby Weather Stations